sensor_id;sensor_type;location;lat;lon;timestamp;pressure;altitude;pressure_sealevel;temperature;humidity
25560;BME280;13450;49.374;8.584;2024-03-07T00:01:17;101137.00;;;4.81;100.00
25560;BME280;13450;49.374;8.584;2024-03-07T00:03:42;101135.22;;;4.82;100.00
25560;BME280;13450;49.374;8.584;2024-03-07T00:06:09;101149.59;;;4.79;100.00
25560;BME280;13450;49.374;8.584;2024-03-07T00:08:34;101137.28;;;4.78;100.00
25560;BME280;13450;49.374;8.584;2024-03-07T00:11:02;101134.66;;;4.78;100.00
25560;BME280;13450;49.374;8.584;2024-03-07T00:13:34;101148.59;;;4.80;100.00
25560;BME280;13450;49.374;8.584;2024-03-07T00:16:00;101149.59;;;4.79;100.00
25560;BME280;13450;49.374;8.584;2024-03-07T00:18:27;101147.91;;;4.78;100.00
25560;BME280;13450;49.374;8.584;2024-03-07T00:20:52;101150.06;;;4.73;100.00
25560;BME280;13450;49.374;8.584;2024-03-07T00:23:20;101159.41;;;4.67;100.00
25560;BME280;13450;49.374;8.584;2024-03-07T00:25:45;101149.19;;;4.63;100.00
25560;BME280;13450;49.374;8.584;2024-03-07T00:28:11;101152.47;;;4.55;100.00
25560;BME280;13450;49.374;8.584;2024-03-07T00:30:37;101158.53;;;4.45;100.00
25560;BME280;13450;49.374;8.584;2024-03-07T00:33:02;101149.16;;;4.41;100.00
25560;BME280;13450;49.374;8.584;2024-03-07T00:35:27;101148.44;;;4.39;100.00
25560;BME280;13450;49.374;8.584;2024-03-07T00:37:56;101158.47;;;4.36;100.00
25560;BME280;13450;49.374;8.584;2024-03-07T00:40:23;101155.94;;;4.34;100.00
25560;BME280;13450;49.374;8.584;2024-03-07T00:42:49;101152.44;;;4.34;100.00
25560;BME280;13450;49.374;8.584;2024-03-07T00:45:19;101160.66;;;4.30;100.00
25560;BME280;13450;49.374;8.584;2024-03-07T00:47:44;101157.28;;;4.28;100.00
25560;BME280;13450;49.374;8.584;2024-03-07T00:50:13;101155.72;;;4.26;100.00
25560;BME280;13450;49.374;8.584;2024-03-07T00:52:39;101155.97;;;4.23;100.00
25560;BME280;13450;49.374;8.584;2024-03-07T00:55:06;101149.97;;;4.21;100.00
25560;BME280;13450;49.374;8.584;2024-03-07T00:57:33;101149.97;;;4.21;100.00
25560;BME280;13450;49.374;8.584;2024-03-07T00:59:59;101146.34;;;4.22;100.00
25560;BME280;13450;49.374;8.584;2024-03-07T01:02:24;101146.22;;;4.23;100.00
25560;BME280;13450;49.374;8.584;2024-03-07T01:04:50;101142.97;;;4.19;100.00
25560;BME280;13450;49.374;8.584;2024-03-07T01:07:16;101142.97;;;4.19;100.00
25560;BME280;13450;49.374;8.584;2024-03-07T01:09:41;101138.53;;;4.20;100.00
25560;BME280;13450;49.374;8.584;2024-03-07T01:12:06;101142.72;;;4.23;100.00
25560;BME280;13450;49.374;8.584;2024-03-07T01:14:32;101151.03;;;4.18;100.00
25560;BME280;13450;49.374;8.584;2024-03-07T01:16:57;101147.94;;;4.13;100.00
25560;BME280;13450;49.374;8.584;2024-03-07T01:19:23;101144.81;;;4.08;100.00
25560;BME280;13450;49.374;8.584;2024-03-07T01:21:51;101154.63;;;3.96;100.00
25560;BME280;13450;49.374;8.584;2024-03-07T01:24:17;101157.75;;;3.89;100.00
25560;BME280;13450;49.374;8.584;2024-03-07T01:26:43;101146.78;;;3.83;100.00
25560;BME280;13450;49.374;8.584;2024-03-07T01:29:09;101146.69;;;3.84;100.00
25560;BME280;13450;49.374;8.584;2024-03-07T01:31:35;101149.09;;;3.87;100.00
25560;BME280;13450;49.374;8.584;2024-03-07T01:34:00;101147.53;;;3.85;100.00
25560;BME280;13450;49.374;8.584;2024-03-07T01:36:25;101145.34;;;3.90;100.00
25560;BME280;13450;49.374;8.584;2024-03-07T01:38:50;101141.97;;;3.88;100.00
25560;BME280;13450;49.374;8.584;2024-03-07T01:41:16;101144.88;;;3.85;100.00
25560;BME280;13450;49.374;8.584;2024-03-07T01:43:42;101132.47;;;3.85;100.00
25560;BME280;13450;49.374;8.584;2024-03-07T01:46:08;101130.66;;;3.86;100.00
25560;BME280;13450;49.374;8.584;2024-03-07T01:48:33;101135.97;;;3.86;100.00
25560;BME280;13450;49.374;8.584;2024-03-07T01:50:59;101128.88;;;3.86;100.00
25560;BME280;13450;49.374;8.584;2024-03-07T01:53:27;101130.66;;;3.86;100.00
25560;BME280;13450;49.374;8.584;2024-03-07T01:55:52;101134.28;;;3.85;100.00
25560;BME280;13450;49.374;8.584;2024-03-07T01:58:23;101127.06;;;3.87;100.00
25560;BME280;13450;49.374;8.584;2024-03-07T02:00:49;101128.50;;;3.91;100.00
25560;BME280;13450;49.374;8.584;2024-03-07T02:03:14;101128.25;;;3.94;100.00
25560;BME280;13450;49.374;8.584;2024-03-07T02:05:40;101121.84;;;3.97;100.00
25560;BME280;13450;49.374;8.584;2024-03-07T02:08:06;101123.19;;;4.02;100.00
25560;BME280;13450;49.374;8.584;2024-03-07T02:10:31;101127.50;;;4.03;100.00
25560;BME280;13450;49.374;8.584;2024-03-07T02:12:59;101122.31;;;4.02;100.00
25560;BME280;13450;49.374;8.584;2024-03-07T02:15:26;101123.88;;;4.04;100.00
25560;BME280;13450;49.374;8.584;2024-03-07T02:17:51;101120.25;;;4.05;100.00
25560;BME280;13450;49.374;8.584;2024-03-07T02:20:19;101121.47;;;4.01;100.00
25560;BME280;13450;49.374;8.584;2024-03-07T02:22:47;101115.22;;;4.02;100.00
25560;BME280;13450;49.374;8.584;2024-03-07T02:25:12;101113.53;;;4.01;100.00
25560;BME280;13450;49.374;8.584;2024-03-07T02:27:38;101111.84;;;4.00;100.00
25560;BME280;13450;49.374;8.584;2024-03-07T02:30:04;101112.25;;;3.96;100.00
25560;BME280;13450;49.374;8.584;2024-03-07T02:32:30;101119.84;;;3.89;100.00
25560;BME280;13450;49.374;8.584;2024-03-07T02:34:56;101114.78;;;3.86;100.00
25560;BME280;13450;49.374;8.584;2024-03-07T02:37:26;101116.97;;;3.81;100.00
25560;BME280;13450;49.374;8.584;2024-03-07T02:39:54;101117.44;;;3.74;100.00
25560;BME280;13450;49.374;8.584;2024-03-07T02:42:19;101110.25;;;3.65;100.00
25560;BME280;13450;49.374;8.584;2024-03-07T02:44:45;101109.06;;;3.58;100.00
25560;BME280;13450;49.374;8.584;2024-03-07T02:47:10;101108.34;;;3.56;100.00
25560;BME280;13450;49.374;8.584;2024-03-07T02:49:36;101103.53;;;3.49;100.00
25560;BME280;13450;49.374;8.584;2024-03-07T02:52:01;101103.78;;;3.46;100.00
25560;BME280;13450;49.374;8.584;2024-03-07T02:54:26;101103.06;;;3.44;100.00
25560;BME280;13450;49.374;8.584;2024-03-07T02:56:52;101098.13;;;3.39;100.00
25560;BME280;13450;49.374;8.584;2024-03-07T02:59:17;101094.31;;;3.32;100.00
25560;BME280;13450;49.374;8.584;2024-03-07T03:01:43;101097.19;;;3.29;100.00
25560;BME280;13450;49.374;8.584;2024-03-07T03:04:08;101096.59;;;3.25;100.00
25560;BME280;13450;49.374;8.584;2024-03-07T03:06:33;101094.28;;;3.21;100.00
25560;BME280;13450;49.374;8.584;2024-03-07T03:08:59;101087.56;;;3.17;100.00
25560;BME280;13450;49.374;8.584;2024-03-07T03:11:24;101089.50;;;3.14;100.00
25560;BME280;13450;49.374;8.584;2024-03-07T03:13:51;101094.91;;;3.13;100.00
25560;BME280;13450;49.374;8.584;2024-03-07T03:16:16;101087.19;;;3.10;100.00
25560;BME280;13450;49.374;8.584;2024-03-07T03:18:42;101085.53;;;3.09;100.00
25560;BME280;13450;49.374;8.584;2024-03-07T03:21:09;101091.91;;;3.06;100.00
25560;BME280;13450;49.374;8.584;2024-03-07T03:23:34;101093.81;;;3.04;100.00
25560;BME280;13450;49.374;8.584;2024-03-07T03:26:00;101098.50;;;3.00;100.00
25560;BME280;13450;49.374;8.584;2024-03-07T03:28:26;101089.22;;;2.95;100.00
25560;BME280;13450;49.374;8.584;2024-03-07T03:30:52;101091.28;;;2.91;100.00
25560;BME280;13450;49.374;8.584;2024-03-07T03:33:18;101091.50;;;2.88;100.00
25560;BME280;13450;49.374;8.584;2024-03-07T03:35:43;101092.47;;;2.87;100.00
25560;BME280;13450;49.374;8.584;2024-03-07T03:38:09;101093.44;;;2.86;100.00
25560;BME280;13450;49.374;8.584;2024-03-07T03:40:37;101093.44;;;2.86;100.00
25560;BME280;13450;49.374;8.584;2024-03-07T03:43:03;101095.59;;;2.81;100.00
25560;BME280;13450;49.374;8.584;2024-03-07T03:45:28;101091.25;;;2.80;100.00
25560;BME280;13450;49.374;8.584;2024-03-07T03:47:54;101098.47;;;2.78;100.00
25560;BME280;13450;49.374;8.584;2024-03-07T03:50:22;101089.94;;;2.74;100.00
25560;BME280;13450;49.374;8.584;2024-03-07T03:52:51;101088.38;;;2.71;100.00
25560;BME280;13450;49.374;8.584;2024-03-07T03:55:16;101094.75;;;2.69;100.00
25560;BME280;13450;49.374;8.584;2024-03-07T03:57:43;101090.78;;;2.63;100.00
25560;BME280;13450;49.374;8.584;2024-03-07T04:00:10;101102.31;;;2.62;100.00
25560;BME280;13450;49.374;8.584;2024-03-07T04:05:05;101096.50;;;2.57;100.00
25560;BME280;13450;49.374;8.584;2024-03-07T04:07:30;101096.13;;;2.50;100.00
25560;BME280;13450;49.374;8.584;2024-03-07T04:10:00;101097.44;;;2.44;100.00
25560;BME280;13450;49.374;8.584;2024-03-07T04:12:29;101090.25;;;2.46;100.00
25560;BME280;13450;49.374;8.584;2024-03-07T04:14:54;101085.91;;;2.45;100.00
25560;BME280;13450;49.374;8.584;2024-03-07T04:17:41;101084.56;;;2.40;100.00
25560;BME280;13450;49.374;8.584;2024-03-07T04:20:10;101082.91;;;2.39;100.00
25560;BME280;13450;49.374;8.584;2024-03-07T04:22:36;101078.47;;;2.39;100.00
25560;BME280;13450;49.374;8.584;2024-03-07T04:25:05;101088.06;;;2.40;100.00
25560;BME280;13450;49.374;8.584;2024-03-07T04:27:35;101083.75;;;2.39;100.00
25560;BME280;13450;49.374;8.584;2024-03-07T04:30:03;101091.16;;;2.34;100.00
25560;BME280;13450;49.374;8.584;2024-03-07T04:32:29;101075.56;;;2.31;100.00
25560;BME280;13450;49.374;8.584;2024-03-07T04:34:54;101081.28;;;2.25;100.00
25560;BME280;13450;49.374;8.584;2024-03-07T04:37:22;101085.09;;;2.20;100.00
25560;BME280;13450;49.374;8.584;2024-03-07T04:39:47;101084.16;;;2.21;100.00
25560;BME280;13450;49.374;8.584;2024-03-07T04:42:13;101085.25;;;2.19;100.00
25560;BME280;13450;49.374;8.584;2024-03-07T04:44:38;101076.94;;;2.12;100.00
25560;BME280;13450;49.374;8.584;2024-03-07T04:47:05;101079.69;;;2.11;100.00
25560;BME280;13450;49.374;8.584;2024-03-07T04:49:32;101088.69;;;2.08;100.00
25560;BME280;13450;49.374;8.584;2024-03-07T04:51:59;101079.56;;;2.12;100.00
25560;BME280;13450;49.374;8.584;2024-03-07T04:54:26;101083.78;;;2.15;100.00
25560;BME280;13450;49.374;8.584;2024-03-07T04:56:53;101085.78;;;2.11;100.00
25560;BME280;13450;49.374;8.584;2024-03-07T04:59:21;101077.16;;;2.09;100.00
25560;BME280;13450;49.374;8.584;2024-03-07T05:01:48;101083.16;;;2.11;100.00
25560;BME280;13450;49.374;8.584;2024-03-07T05:04:15;101086.66;;;2.12;100.00
25560;BME280;13450;49.374;8.584;2024-03-07T05:06:41;101084.13;;;2.10;100.00
25560;BME280;13450;49.374;8.584;2024-03-07T05:09:07;101084.13;;;2.10;100.00
25560;BME280;13450;49.374;8.584;2024-03-07T05:11:34;101082.44;;;2.09;100.00
25560;BME280;13450;49.374;8.584;2024-03-07T05:14:00;101085.56;;;2.14;100.00
25560;BME280;13450;49.374;8.584;2024-03-07T05:16:30;101090.13;;;2.12;100.00
25560;BME280;13450;49.374;8.584;2024-03-07T05:18:57;101084.84;;;2.12;100.00
25560;BME280;13450;49.374;8.584;2024-03-07T05:21:26;101080.00;;;2.06;100.00
25560;BME280;13450;49.374;8.584;2024-03-07T05:23:57;101081.94;;;2.04;100.00
25560;BME280;13450;49.374;8.584;2024-03-07T05:26:23;101081.19;;;2.02;100.00
25560;BME280;13450;49.374;8.584;2024-03-07T05:28:48;101077.84;;;2.00;100.00
25560;BME280;13450;49.374;8.584;2024-03-07T05:31:16;101078.91;;;1.97;100.00
25560;BME280;13450;49.374;8.584;2024-03-07T05:33:43;101080.59;;;1.98;100.00
25560;BME280;13450;49.374;8.584;2024-03-07T05:36:08;101081.44;;;1.99;100.00
25560;BME280;13450;49.374;8.584;2024-03-07T05:38:43;101078.06;;;1.96;100.00
25560;BME280;13450;49.374;8.584;2024-03-07T05:41:12;101079.97;;;1.94;100.00
25560;BME280;13450;49.374;8.584;2024-03-07T05:43:42;101078.28;;;1.93;100.00
25560;BME280;13450;49.374;8.584;2024-03-07T05:46:09;101087.38;;;1.89;100.00
25560;BME280;13450;49.374;8.584;2024-03-07T05:48:39;101083.78;;;1.90;100.00
25560;BME280;13450;49.374;8.584;2024-03-07T05:51:05;101088.69;;;1.83;100.00
25560;BME280;13450;49.374;8.584;2024-03-07T05:53:30;101082.75;;;1.80;100.00
25560;BME280;13450;49.374;8.584;2024-03-07T05:56:00;101082.16;;;1.76;100.00
25560;BME280;13450;49.374;8.584;2024-03-07T05:58:26;101090.41;;;1.72;100.00
25560;BME280;13450;49.374;8.584;2024-03-07T06:00:51;101080.91;;;1.69;100.00
25560;BME280;13450;49.374;8.584;2024-03-07T06:03:20;101087.25;;;1.66;100.00
25560;BME280;13450;49.374;8.584;2024-03-07T06:05:46;101086.63;;;1.63;100.00
25560;BME280;13450;49.374;8.584;2024-03-07T06:08:17;101088.41;;;1.62;100.00
25560;BME280;13450;49.374;8.584;2024-03-07T06:10:47;101093.59;;;1.64;100.00
25560;BME280;13450;49.374;8.584;2024-03-07T06:13:14;101093.59;;;1.64;100.00
25560;BME280;13450;49.374;8.584;2024-03-07T06:15:43;101084.59;;;1.66;100.00
25560;BME280;13450;49.374;8.584;2024-03-07T06:18:09;101085.34;;;1.68;100.00
25560;BME280;13450;49.374;8.584;2024-03-07T06:20:36;101083.69;;;1.67;100.00
25560;BME280;13450;49.374;8.584;2024-03-07T06:23:04;101085.56;;;1.65;100.00
25560;BME280;13450;49.374;8.584;2024-03-07T06:25:33;101089.66;;;1.69;100.00
25560;BME280;13450;49.374;8.584;2024-03-07T06:28:04;101090.19;;;1.75;100.00
25560;BME280;13450;49.374;8.584;2024-03-07T06:30:37;101086.81;;;1.73;100.00
25560;BME280;13450;49.374;8.584;2024-03-07T06:33:03;101090.91;;;1.77;100.00
25560;BME280;13450;49.374;8.584;2024-03-07T06:35:28;101085.19;;;1.83;100.00
25560;BME280;13450;49.374;8.584;2024-03-07T06:37:53;101076.19;;;1.86;100.00
25560;BME280;13450;49.374;8.584;2024-03-07T06:40:19;101080.81;;;1.95;100.00
25560;BME280;13450;49.374;8.584;2024-03-07T06:42:48;101073.38;;;2.00;100.00
25560;BME280;13450;49.374;8.584;2024-03-07T06:45:13;101084.34;;;2.07;100.00
25560;BME280;13450;49.374;8.584;2024-03-07T06:47:39;101076.78;;;2.14;100.00
25560;BME280;13450;49.374;8.584;2024-03-07T06:50:04;101085.00;;;2.22;100.00
25560;BME280;13450;49.374;8.584;2024-03-07T06:52:33;101081.06;;;2.28;100.00
25560;BME280;13450;49.374;8.584;2024-03-07T06:55:01;101078.81;;;2.34;100.00
25560;BME280;13450;49.374;8.584;2024-03-07T06:57:29;101078.47;;;2.39;100.00
25560;BME280;13450;49.374;8.584;2024-03-07T06:59:54;101085.69;;;2.48;100.00
25560;BME280;13450;49.374;8.584;2024-03-07T07:02:20;101084.25;;;2.56;100.00
25560;BME280;13450;49.374;8.584;2024-03-07T07:04:45;101077.56;;;2.63;100.00
25560;BME280;13450;49.374;8.584;2024-03-07T07:07:13;101082.47;;;2.68;100.00
25560;BME280;13450;49.374;8.584;2024-03-07T07:09:39;101080.81;;;2.78;100.00
25560;BME280;13450;49.374;8.584;2024-03-07T07:12:05;101079.25;;;2.87;100.00
25560;BME280;13450;49.374;8.584;2024-03-07T07:14:32;101073.38;;;2.95;100.00
25560;BME280;13450;49.374;8.584;2024-03-07T07:16:58;101075.66;;;2.99;100.00
25560;BME280;13450;49.374;8.584;2024-03-07T07:19:26;101067.97;;;3.08;100.00
25560;BME280;13450;49.374;8.584;2024-03-07T07:21:52;101075.31;;;3.16;100.00
25560;BME280;13450;49.374;8.584;2024-03-07T07:24:20;101070.38;;;3.22;100.00
25560;BME280;13450;49.374;8.584;2024-03-07T07:26:47;101073.72;;;3.24;100.00
25560;BME280;13450;49.374;8.584;2024-03-07T07:29:12;101070.34;;;3.34;100.00
25560;BME280;13450;49.374;8.584;2024-03-07T07:31:37;101074.19;;;3.41;100.00
25560;BME280;13450;49.374;8.584;2024-03-07T07:34:05;101078.75;;;3.50;100.00
25560;BME280;13450;49.374;8.584;2024-03-07T07:36:31;101071.28;;;3.56;100.00
25560;BME280;13450;49.374;8.584;2024-03-07T07:38:57;101069.59;;;3.66;100.00
25560;BME280;13450;49.374;8.584;2024-03-07T07:41:23;101068.84;;;3.75;100.00
25560;BME280;13450;49.374;8.584;2024-03-07T07:43:48;101074.38;;;3.84;100.00
25560;BME280;13450;49.374;8.584;2024-03-07T07:46:13;101066.59;;;3.92;100.00
25560;BME280;13450;49.374;8.584;2024-03-07T07:48:43;101071.41;;;3.98;100.00
25560;BME280;13450;49.374;8.584;2024-03-07T07:51:09;101069.22;;;4.03;100.00
25560;BME280;13450;49.374;8.584;2024-03-07T07:53:34;101065.94;;;4.11;100.00
25560;BME280;13450;49.374;8.584;2024-03-07T07:56:00;101069.50;;;4.22;100.00
25560;BME280;13450;49.374;8.584;2024-03-07T07:58:25;101063.94;;;4.25;100.00
25560;BME280;13450;49.374;8.584;2024-03-07T08:00:51;101068.88;;;4.29;100.00
25560;BME280;13450;49.374;8.584;2024-03-07T08:03:16;101063.28;;;4.32;100.00
25560;BME280;13450;49.374;8.584;2024-03-07T08:05:44;101054.13;;;4.37;100.00
25560;BME280;13450;49.374;8.584;2024-03-07T08:08:10;101056.97;;;4.45;100.00
25560;BME280;13450;49.374;8.584;2024-03-07T08:10:39;101060.97;;;4.61;100.00
25560;BME280;13450;49.374;8.584;2024-03-07T08:13:07;101060.78;;;4.74;100.00
25560;BME280;13450;49.374;8.584;2024-03-07T08:15:35;101066.81;;;4.86;100.00
25560;BME280;13450;49.374;8.584;2024-03-07T08:18:04;101049.41;;;4.93;100.00
25560;BME280;13450;49.374;8.584;2024-03-07T08:20:35;101055.59;;;5.03;100.00
25560;BME280;13450;49.374;8.584;2024-03-07T08:23:01;101050.84;;;5.07;100.00
25560;BME280;13450;49.374;8.584;2024-03-07T08:25:29;101046.44;;;5.17;100.00
25560;BME280;13450;49.374;8.584;2024-03-07T08:27:56;101050.06;;;5.16;100.00
25560;BME280;13450;49.374;8.584;2024-03-07T08:30:23;101059.28;;;5.12;100.00
25560;BME280;13450;49.374;8.584;2024-03-07T08:32:50;101054.28;;;5.19;100.00
25560;BME280;13450;49.374;8.584;2024-03-07T08:35:19;101057.22;;;5.26;100.00
25560;BME280;13450;49.374;8.584;2024-03-07T08:37:47;101054.88;;;5.42;100.00
25560;BME280;13450;49.374;8.584;2024-03-07T08:40:20;101054.09;;;5.61;100.00
25560;BME280;13450;49.374;8.584;2024-03-07T08:42:49;101047.13;;;5.80;100.00
25560;BME280;13450;49.374;8.584;2024-03-07T08:45:19;101043.22;;;6.04;100.00
25560;BME280;13450;49.374;8.584;2024-03-07T08:47:46;101047.69;;;6.13;100.00
25560;BME280;13450;49.374;8.584;2024-03-07T08:50:12;101040.97;;;6.19;100.00
25560;BME280;13450;49.374;8.584;2024-03-07T08:52:39;101037.19;;;6.22;100.00
25560;BME280;13450;49.374;8.584;2024-03-07T08:55:06;101041.13;;;6.18;100.00
25560;BME280;13450;49.374;8.584;2024-03-07T08:57:36;101034.41;;;6.33;100.00
25560;BME280;13450;49.374;8.584;2024-03-07T09:00:03;101033.94;;;6.48;100.00
25560;BME280;13450;49.374;8.584;2024-03-07T09:02:37;101035.06;;;6.55;100.00
25560;BME280;13450;49.374;8.584;2024-03-07T09:05:04;101033.09;;;6.57;100.00
25560;BME280;13450;49.374;8.584;2024-03-07T09:07:30;101041.47;;;6.62;100.00
25560;BME280;13450;49.374;8.584;2024-03-07T09:09:56;101034.56;;;6.79;100.00
25560;BME280;13450;49.374;8.584;2024-03-07T09:12:24;101024.56;;;6.91;100.00
25560;BME280;13450;49.374;8.584;2024-03-07T09:14:53;101023.66;;;7.11;99.70
25560;BME280;13450;49.374;8.584;2024-03-07T09:17:18;101025.09;;;7.51;97.06
25560;BME280;13450;49.374;8.584;2024-03-07T09:19:44;101020.69;;;7.78;97.16
25560;BME280;13450;49.374;8.584;2024-03-07T09:22:10;101020.69;;;7.78;93.52
25560;BME280;13450;49.374;8.584;2024-03-07T09:24:35;101024.28;;;7.87;85.56
25560;BME280;13450;49.374;8.584;2024-03-07T09:27:03;101017.88;;;7.98;84.75
25560;BME280;13450;49.374;8.584;2024-03-07T09:29:28;101013.34;;;8.17;83.59
25560;BME280;13450;49.374;8.584;2024-03-07T09:31:53;101017.94;;;8.06;84.64
25560;BME280;13450;49.374;8.584;2024-03-07T09:34:20;101006.50;;;8.14;87.56
25560;BME280;13450;49.374;8.584;2024-03-07T09:36:47;101008.69;;;8.19;87.59
25560;BME280;13450;49.374;8.584;2024-03-07T09:39:12;101003.81;;;8.14;85.62
25560;BME280;13450;49.374;8.584;2024-03-07T09:41:38;101005.72;;;8.22;86.78
25560;BME280;13450;49.374;8.584;2024-03-07T09:44:05;101006.44;;;8.06;86.71
25560;BME280;13450;49.374;8.584;2024-03-07T09:46:31;101005.63;;;7.87;80.86
25560;BME280;13450;49.374;8.584;2024-03-07T09:49:00;101005.31;;;7.90;85.73
25560;BME280;13450;49.374;8.584;2024-03-07T09:51:27;101008.53;;;8.20;87.23
25560;BME280;13450;49.374;8.584;2024-03-07T09:53:57;101011.63;;;8.34;80.84
25560;BME280;13450;49.374;8.584;2024-03-07T09:56:30;101011.38;;;8.45;79.86
25560;BME280;13450;49.374;8.584;2024-03-07T09:59:03;101012.44;;;8.53;77.35
25560;BME280;13450;49.374;8.584;2024-03-07T10:01:30;101011.47;;;8.54;80.37
25560;BME280;13450;49.374;8.584;2024-03-07T10:04:00;101013.78;;;8.57;82.77
25560;BME280;13450;49.374;8.584;2024-03-07T10:06:42;101016.50;;;8.65;79.17
25560;BME280;13450;49.374;8.584;2024-03-07T10:09:10;101004.88;;;8.74;80.61
25560;BME280;13450;49.374;8.584;2024-03-07T10:11:40;101011.91;;;8.75;78.18
25560;BME280;13450;49.374;8.584;2024-03-07T10:14:09;101003.72;;;8.77;79.37
25560;BME280;13450;49.374;8.584;2024-03-07T10:16:38;101002.56;;;8.71;79.72
25560;BME280;13450;49.374;8.584;2024-03-07T10:19:04;101002.09;;;8.84;78.39
25560;BME280;13450;49.374;8.584;2024-03-07T10:21:30;100994.75;;;8.78;75.55
25560;BME280;13450;49.374;8.584;2024-03-07T10:24:06;100991.91;;;8.80;71.08
25560;BME280;13450;49.374;8.584;2024-03-07T10:26:35;100993.09;;;8.85;71.41
25560;BME280;13450;49.374;8.584;2024-03-07T10:29:00;101001.56;;;9.15;70.42
25560;BME280;13450;49.374;8.584;2024-03-07T10:31:32;100999.06;;;9.14;71.83
25560;BME280;13450;49.374;8.584;2024-03-07T10:33:59;100994.72;;;9.13;71.44
25560;BME280;13450;49.374;8.584;2024-03-07T10:36:25;100986.09;;;9.36;76.26
25560;BME280;13450;49.374;8.584;2024-03-07T10:38:50;100991.09;;;9.47;76.40
25560;BME280;13450;49.374;8.584;2024-03-07T10:41:17;100984.44;;;9.60;69.39
25560;BME280;13450;49.374;8.584;2024-03-07T10:43:44;100978.97;;;9.86;70.92
25560;BME280;13450;49.374;8.584;2024-03-07T10:46:12;100979.09;;;10.18;70.69
25560;BME280;13450;49.374;8.584;2024-03-07T10:48:39;100975.56;;;10.42;66.85
25560;BME280;13450;49.374;8.584;2024-03-07T10:51:29;100971.13;;;10.75;64.25
25560;BME280;13450;49.374;8.584;2024-03-07T10:54:13;100966.28;;;11.42;63.95
25560;BME280;13450;49.374;8.584;2024-03-07T10:59:30;100957.09;;;15.25;46.45
25560;BME280;13450;49.374;8.584;2024-03-07T11:04:37;100947.41;;;18.33;36.79
25560;BME280;13450;49.374;8.584;2024-03-07T11:07:03;100940.34;;;19.18;35.38
25560;BME280;13450;49.374;8.584;2024-03-07T11:09:33;100934.91;;;19.97;34.19
25560;BME280;13450;49.374;8.584;2024-03-07T11:12:00;100934.34;;;20.72;31.79
25560;BME280;13450;49.374;8.584;2024-03-07T11:14:28;100946.13;;;20.36;31.83
25560;BME280;13450;49.374;8.584;2024-03-07T11:16:54;100929.09;;;20.94;31.37
25560;BME280;13450;49.374;8.584;2024-03-07T11:19:27;100932.69;;;20.18;30.87
25560;BME280;13450;49.374;8.584;2024-03-07T11:21:56;100931.34;;;20.85;30.68
25560;BME280;13450;49.374;8.584;2024-03-07T11:24:30;100933.00;;;20.98;30.46
25560;BME280;13450;49.374;8.584;2024-03-07T11:27:02;100931.81;;;20.41;30.47
25560;BME280;13450;49.374;8.584;2024-03-07T11:32:15;100914.44;;;22.82;27.86
25560;BME280;13450;49.374;8.584;2024-03-07T11:34:42;100909.41;;;23.24;27.00
25560;BME280;13450;49.374;8.584;2024-03-07T11:37:37;100901.50;;;22.95;28.74
25560;BME280;13450;49.374;8.584;2024-03-07T11:40:07;100903.59;;;21.64;28.86
25560;BME280;13450;49.374;8.584;2024-03-07T11:42:33;100907.19;;;22.04;27.71
25560;BME280;13450;49.374;8.584;2024-03-07T11:45:01;100896.28;;;23.48;27.23
25560;BME280;13450;49.374;8.584;2024-03-07T11:47:37;100898.41;;;21.62;29.03
25560;BME280;13450;49.374;8.584;2024-03-07T11:50:07;100897.66;;;22.96;28.28
25560;BME280;13450;49.374;8.584;2024-03-07T11:52:38;100894.63;;;22.65;26.97
25560;BME280;13450;49.374;8.584;2024-03-07T11:55:13;100893.59;;;22.48;27.97
25560;BME280;13450;49.374;8.584;2024-03-07T11:57:40;100880.44;;;23.94;25.90
25560;BME280;13450;49.374;8.584;2024-03-07T12:00:11;100883.78;;;24.06;25.79
25560;BME280;13450;49.374;8.584;2024-03-07T12:02:38;100877.06;;;24.29;25.36
25560;BME280;13450;49.374;8.584;2024-03-07T12:05:07;100879.34;;;23.95;25.98
25560;BME280;13450;49.374;8.584;2024-03-07T12:07:36;100876.19;;;25.03;29.08
25560;BME280;13450;49.374;8.584;2024-03-07T12:10:04;100868.78;;;25.35;24.55
25560;BME280;13450;49.374;8.584;2024-03-07T12:12:31;100864.66;;;23.25;25.93
25560;BME280;13450;49.374;8.584;2024-03-07T12:14:59;100869.66;;;24.14;25.83
25560;BME280;13450;49.374;8.584;2024-03-07T12:17:27;100857.06;;;21.31;28.23
25560;BME280;13450;49.374;8.584;2024-03-07T12:19:55;100849.06;;;21.93;31.60
25560;BME280;13450;49.374;8.584;2024-03-07T12:22:26;100844.44;;;20.20;31.59
25560;BME280;13450;49.374;8.584;2024-03-07T12:25:03;100834.56;;;19.18;33.58
25560;BME280;13450;49.374;8.584;2024-03-07T12:27:28;100843.47;;;17.89;37.62
25560;BME280;13450;49.374;8.584;2024-03-07T12:29:55;100837.50;;;19.41;33.39
25560;BME280;13450;49.374;8.584;2024-03-07T12:32:20;100845.53;;;19.95;33.22
25560;BME280;13450;49.374;8.584;2024-03-07T12:34:46;100846.25;;;18.88;35.55
25560;BME280;13450;49.374;8.584;2024-03-07T12:37:13;100837.81;;;16.50;36.52
25560;BME280;13450;49.374;8.584;2024-03-07T12:39:42;100842.63;;;15.62;40.43
25560;BME280;13450;49.374;8.584;2024-03-07T12:42:15;100835.97;;;14.41;43.50
25560;BME280;13450;49.374;8.584;2024-03-07T12:44:42;100835.28;;;13.33;46.47
25560;BME280;13450;49.374;8.584;2024-03-07T12:47:11;100828.47;;;12.72;49.50
25560;BME280;13450;49.374;8.584;2024-03-07T12:49:36;100818.78;;;12.19;51.62
25560;BME280;13450;49.374;8.584;2024-03-07T12:52:02;100827.63;;;12.04;55.25
25560;BME280;13450;49.374;8.584;2024-03-07T12:54:27;100821.47;;;11.50;57.12
25560;BME280;13450;49.374;8.584;2024-03-07T12:56:53;100812.25;;;11.37;63.32
25560;BME280;13450;49.374;8.584;2024-03-07T12:59:18;100814.16;;;11.05;65.53
25560;BME280;13450;49.374;8.584;2024-03-07T13:01:45;100823.34;;;10.88;67.69